createdAt,value
2023-02-26T00:01:41.168Z,55.78
2023-02-26T00:04:10.249Z,62.58
2023-02-26T00:06:52.992Z,69.18
2023-02-26T00:09:23.332Z,73.47
2023-02-26T00:11:51.514Z,71.63
2023-02-26T00:14:20.120Z,63.65
2023-02-26T00:16:56.160Z,70.80
2023-02-26T00:19:24.238Z,65.35
2023-02-26T00:21:52.357Z,73.85
2023-02-26T00:24:20.254Z,64.63
2023-02-26T00:26:48.219Z,57.97
2023-02-26T00:29:16.430Z,71.18
2023-02-26T00:31:44.825Z,66.57
2023-02-26T00:34:13.893Z,61.70
2023-02-26T00:37:06.087Z,61.10
2023-02-26T00:39:40.277Z,66.65
2023-02-26T00:42:08.661Z,62.05
2023-02-26T00:44:36.877Z,62.80
2023-02-26T00:47:43.535Z,57.20
2023-02-26T00:50:18.783Z,59.85
2023-02-26T00:52:47.192Z,63.42
2023-02-26T00:55:15.539Z,60.83
2023-02-26T00:57:43.453Z,58.90
2023-02-26T01:00:12.449Z,55.28
2023-02-26T01:02:41.541Z,59.33
2023-02-26T01:05:10.182Z,55.60
2023-02-26T01:07:54.576Z,54.58
2023-02-26T01:12:50.657Z,56.88
2023-02-26T01:15:19.157Z,55.65
2023-02-26T01:18:12.564Z,55.78
2023-02-26T01:21:04.248Z,56.00
2023-02-26T01:23:36.989Z,56.42
2023-02-26T01:26:13.033Z,61.70
2023-02-26T01:28:41.362Z,63.13
2023-02-26T01:31:23.434Z,56.38
2023-02-26T01:33:56.294Z,66.32
2023-02-26T01:36:28.458Z,58.35
2023-02-26T01:38:59.272Z,60.17
2023-02-26T01:41:47.578Z,59.58
2023-02-26T01:44:26.632Z,49.17
2023-02-26T01:47:11.959Z,48.30
2023-02-26T01:49:41.588Z,50.30
2023-02-26T01:52:48.612Z,43.17
2023-02-26T01:55:20.833Z,40.72
2023-02-26T01:57:50.875Z,47.10
2023-02-26T02:00:19.470Z,59.25
2023-02-26T02:02:47.480Z,49.95
2023-02-26T02:05:22.480Z,62.50
2023-02-26T02:07:50.600Z,54.13
2023-02-26T02:10:18.996Z,48.40
2023-02-26T02:13:11.391Z,55.13
2023-02-26T02:16:15.876Z,50.67
2023-02-26T02:18:54.617Z,55.65
2023-02-26T02:21:35.417Z,52.88
2023-02-26T02:24:15.553Z,48.95
2023-02-26T02:26:53.602Z,49.00
2023-02-26T02:30:06.046Z,51.17
2023-02-26T02:32:40.025Z,48.75
2023-02-26T02:37:54.304Z,25.08
2023-02-26T02:40:31.576Z,19.85
2023-02-26T02:43:09.616Z,18.75
2023-02-26T02:46:05.025Z,9.60
2023-02-26T02:48:38.416Z,13.07
2023-02-26T02:51:17.988Z,14.85
2023-02-26T02:53:52.620Z,9.68
2023-02-26T02:56:26.391Z,9.45
2023-02-26T02:59:16.243Z,5.88
2023-02-26T03:01:48.324Z,4.65
2023-02-26T03:04:17.626Z,4.93
2023-02-26T03:06:46.950Z,4.30
2023-02-26T03:09:14.867Z,3.25
2023-02-26T03:11:43.372Z,2.88
2023-02-26T03:14:13.307Z,3.40
2023-02-26T03:17:11.793Z,4.00
2023-02-26T03:20:11.416Z,2.53
2023-02-26T03:22:53.381Z,0.77
2023-02-26T03:25:48.186Z,2.72
2023-02-26T03:28:36.318Z,1.52
2023-02-26T03:31:20.369Z,3.65
2023-02-26T03:34:07.505Z,1.83
2023-02-26T03:36:43.920Z,3.42
2023-02-26T03:39:26.611Z,2.95
2023-02-26T03:42:10.100Z,1.88
2023-02-26T03:44:56.125Z,0.90
2023-02-26T03:47:25.946Z,6.07
2023-02-26T03:50:03.997Z,0.90
2023-02-26T03:52:39.485Z,4.20
2023-02-26T03:55:36.755Z,1.27
2023-02-26T03:58:24.888Z,1.30
2023-02-26T04:01:38.416Z,0.22
2023-02-26T04:04:12.819Z,1.00
2023-02-26T04:06:42.220Z,0.32
2023-02-26T04:09:10.217Z,0.82
2023-02-26T04:11:39.809Z,0.30
2023-02-26T04:14:07.702Z,1.40
2023-02-26T04:16:40.153Z,0.10
2023-02-26T04:19:08.150Z,0.38
2023-02-26T04:21:36.284Z,1.83
2023-02-26T04:24:05.438Z,0.10
2023-02-26T04:26:33.429Z,3.40
2023-02-26T04:29:01.314Z,1.40
2023-02-26T04:31:29.946Z,3.42
2023-02-26T04:33:57.902Z,6.80
2023-02-26T04:36:25.990Z,3.78
2023-02-26T04:38:54.666Z,0.38
2023-02-26T04:41:23.067Z,0.35
2023-02-26T04:43:50.913Z,0.20
2023-02-26T04:46:26.340Z,0.43
2023-02-26T04:48:55.122Z,1.45
2023-02-26T04:51:24.014Z,0.65
2023-02-26T04:53:53.191Z,1.75
2023-02-26T04:56:21.678Z,0.32
2023-02-26T04:58:49.625Z,0.82
2023-02-26T05:01:23.654Z,5.28
2023-02-26T05:03:51.727Z,1.17
2023-02-26T05:06:19.629Z,0.50
2023-02-26T05:08:47.548Z,3.53
2023-02-26T05:11:15.540Z,0.40
2023-02-26T05:13:43.396Z,1.08
2023-02-26T05:16:11.278Z,0.40
2023-02-26T05:18:40.086Z,0.30
2023-02-26T05:21:08.021Z,0.50
2023-02-26T05:23:35.959Z,0.43
2023-02-26T05:26:04.079Z,1.83
2023-02-26T05:28:33.991Z,0.40
2023-02-26T05:31:04.923Z,1.27
2023-02-26T05:33:33.353Z,0.47
2023-02-26T05:36:01.264Z,5.78
2023-02-26T05:38:29.136Z,1.42
2023-02-26T05:40:58.207Z,0.32
2023-02-26T05:43:27.098Z,1.65
2023-02-26T05:45:55.706Z,1.73
2023-02-26T05:48:24.150Z,0.75
2023-02-26T05:50:53.390Z,1.45
2023-02-26T05:53:21.112Z,0.40
2023-02-26T05:55:49.163Z,1.65
2023-02-26T05:58:17.012Z,2.08
2023-02-26T06:00:44.983Z,0.40
2023-02-26T06:03:13.037Z,0.60
2023-02-26T06:05:41.079Z,0.70
2023-02-26T06:08:08.944Z,0.40
2023-02-26T06:10:36.852Z,0.40
2023-02-26T06:13:04.765Z,0.75
2023-02-26T06:15:33.014Z,0.50
2023-02-26T06:18:01.257Z,1.75
2023-02-26T06:20:29.192Z,0.40
2023-02-26T06:22:57.037Z,0.30
2023-02-26T06:25:25.020Z,0.63
2023-02-26T06:27:52.990Z,0.55
2023-02-26T06:30:23.929Z,1.95
2023-02-26T06:32:51.914Z,0.70
2023-02-26T06:35:19.780Z,0.30
2023-02-26T06:37:47.678Z,0.30
2023-02-26T06:40:15.723Z,0.50
2023-02-26T06:42:43.559Z,0.70
2023-02-26T06:45:11.625Z,0.50
2023-02-26T06:47:39.510Z,0.85
2023-02-26T06:50:08.321Z,1.23
2023-02-26T06:52:36.735Z,0.57
2023-02-26T06:55:05.792Z,0.63
2023-02-26T06:57:35.093Z,0.40
2023-02-26T07:00:04.619Z,0.40
2023-02-26T07:02:32.644Z,0.30
2023-02-26T07:05:00.651Z,0.32
2023-02-26T07:07:28.609Z,0.40
2023-02-26T07:09:56.509Z,0.43
2023-02-26T07:12:24.558Z,0.98
2023-02-26T07:14:52.468Z,0.88
2023-02-26T07:17:23.818Z,1.00
2023-02-26T07:19:52.937Z,0.38
2023-02-26T07:22:22.241Z,0.40
2023-02-26T07:24:50.480Z,0.50
2023-02-26T07:27:18.632Z,0.73
2023-02-26T07:29:46.502Z,0.70
2023-02-26T07:32:14.384Z,0.60
2023-02-26T07:34:42.625Z,1.40
2023-02-26T07:37:10.765Z,0.77
2023-02-26T07:39:38.626Z,0.40
2023-02-26T07:42:06.455Z,1.35
2023-02-26T07:44:34.624Z,0.50
2023-02-26T07:47:03.167Z,1.17
2023-02-26T07:49:32.701Z,0.68
2023-02-26T07:52:00.996Z,0.50
2023-02-26T07:54:29.030Z,0.60
2023-02-26T07:56:56.897Z,0.63
2023-02-26T07:59:24.684Z,0.38
2023-02-26T08:01:52.605Z,0.45
2023-02-26T08:04:20.614Z,0.35
2023-02-26T08:06:48.569Z,0.30
2023-02-26T08:09:16.836Z,0.70
2023-02-26T08:11:44.820Z,0.63
2023-02-26T08:14:12.737Z,0.30
2023-02-26T08:16:41.065Z,0.40
2023-02-26T08:19:09.209Z,0.30
2023-02-26T08:21:37.623Z,0.40
2023-02-26T08:24:05.830Z,1.27
2023-02-26T08:26:37.122Z,0.80
2023-02-26T08:29:05.843Z,0.60
2023-02-26T08:31:35.118Z,0.57
2023-02-26T08:34:03.235Z,0.57
2023-02-26T08:36:32.170Z,0.28
2023-02-26T08:38:59.981Z,0.57
2023-02-26T08:41:30.025Z,0.35
2023-02-26T08:43:58.899Z,0.95
2023-02-26T08:46:27.334Z,0.32
2023-02-26T08:48:55.516Z,0.40
2023-02-26T08:51:23.748Z,0.40
2023-02-26T08:53:51.948Z,0.52
2023-02-26T08:56:19.892Z,0.30
2023-02-26T08:58:47.776Z,1.75
2023-02-26T09:01:15.792Z,0.40
2023-02-26T09:03:44.131Z,0.63
2023-02-26T09:06:12.092Z,0.60
2023-02-26T09:08:40.081Z,0.40
2023-02-26T09:11:08.015Z,0.30
2023-02-26T09:13:35.933Z,0.47
2023-02-26T09:16:04.007Z,0.57
2023-02-26T09:18:32.008Z,0.35
2023-02-26T09:20:59.937Z,0.85
2023-02-26T09:23:27.792Z,0.40
2023-02-26T09:25:57.110Z,0.38
2023-02-26T09:28:26.367Z,0.55
2023-02-26T09:30:55.483Z,0.60
2023-02-26T09:33:23.752Z,0.47
2023-02-26T09:35:52.868Z,0.50
2023-02-26T09:38:20.955Z,0.60
2023-02-26T09:40:51.599Z,0.22
2023-02-26T09:43:54.841Z,0.63
2023-02-26T09:46:52.268Z,0.40
2023-02-26T09:49:51.966Z,1.85
2023-02-26T09:52:35.281Z,0.30
2023-02-26T09:55:28.787Z,2.60
2023-02-26T09:58:01.114Z,0.77
2023-02-26T10:00:43.929Z,2.20
2023-02-26T10:03:33.168Z,0.63
2023-02-26T10:06:07.226Z,0.82
2023-02-26T10:09:04.270Z,0.50
2023-02-26T10:12:02.537Z,0.43
2023-02-26T10:14:52.347Z,2.00
2023-02-26T10:17:27.485Z,1.85
2023-02-26T10:20:16.645Z,1.10
2023-02-26T10:22:55.514Z,1.45
2023-02-26T10:25:30.119Z,0.73
2023-02-26T10:28:04.689Z,2.70
2023-02-26T10:30:40.156Z,2.78
2023-02-26T10:33:28.032Z,0.45
2023-02-26T10:36:03.312Z,1.50
2023-02-26T10:38:32.618Z,1.25
2023-02-26T10:41:18.285Z,1.15
2023-02-26T10:43:56.716Z,0.95
2023-02-26T10:46:41.584Z,2.55
2023-02-26T10:49:27.541Z,1.95
2023-02-26T10:51:57.504Z,0.80
2023-02-26T10:54:31.663Z,0.73
2023-02-26T10:59:27.900Z,0.85
2023-02-26T11:01:57.730Z,1.15
2023-02-26T11:04:27.776Z,0.75
2023-02-26T11:06:59.711Z,1.20
2023-02-26T11:09:36.161Z,0.80
2023-02-26T11:12:14.353Z,3.08
2023-02-26T11:14:48.534Z,2.13
2023-02-26T11:17:23.372Z,1.27
2023-02-26T11:19:57.863Z,1.40
2023-02-26T11:22:29.666Z,1.38
2023-02-26T11:24:58.117Z,1.10
2023-02-26T11:27:31.641Z,1.17
2023-02-26T11:30:04.883Z,3.47
2023-02-26T11:32:38.085Z,2.20
2023-02-26T11:35:09.923Z,2.63
2023-02-26T11:37:41.192Z,3.35
2023-02-26T11:40:24.782Z,1.27
2023-02-26T11:42:59.113Z,1.13
2023-02-26T11:45:27.184Z,1.58
2023-02-26T11:48:13.641Z,2.65
2023-02-26T11:50:47.083Z,4.45
2023-02-26T11:53:28.517Z,1.60
2023-02-26T11:56:08.673Z,1.10
2023-02-26T11:58:39.283Z,2.45
2023-02-26T12:01:10.358Z,3.28
2023-02-26T12:03:43.653Z,5.35
2023-02-26T12:06:21.183Z,1.92
2023-02-26T12:08:49.321Z,2.10
2023-02-26T12:11:37.270Z,1.75
2023-02-26T12:14:13.906Z,2.15
2023-02-26T12:17:03.056Z,1.58
2023-02-26T12:20:15.499Z,1.10
2023-02-26T12:23:26.149Z,1.55
2023-02-26T12:26:11.476Z,1.15
2023-02-26T12:29:16.223Z,0.70
2023-02-26T12:32:01.579Z,0.95
2023-02-26T12:34:54.022Z,1.35
2023-02-26T12:37:32.802Z,3.55
2023-02-26T12:40:30.952Z,1.52
2023-02-26T12:43:11.792Z,1.20
2023-02-26T12:45:54.016Z,2.13
2023-02-26T12:48:46.646Z,0.85
2023-02-26T12:51:32.854Z,1.30
2023-02-26T12:54:36.670Z,1.55
2023-02-26T12:57:29.129Z,0.50
2023-02-26T13:00:15.538Z,2.20
2023-02-26T13:03:02.242Z,2.78
2023-02-26T13:05:45.201Z,0.68
2023-02-26T13:08:17.973Z,1.23
2023-02-26T13:11:08.412Z,0.55
2023-02-26T13:13:54.109Z,0.50
2023-02-26T13:16:50.648Z,1.02
2023-02-26T13:19:48.315Z,0.25
2023-02-26T13:22:47.725Z,2.03
2023-02-26T13:25:34.056Z,0.50
2023-02-26T13:28:10.476Z,1.20
2023-02-26T13:30:47.435Z,0.80
2023-02-26T13:33:22.830Z,2.60
2023-02-26T13:35:53.896Z,1.83
2023-02-26T13:38:39.777Z,0.70
2023-02-26T13:41:41.075Z,0.50
2023-02-26T13:44:36.261Z,1.25
2023-02-26T13:47:24.617Z,0.90
2023-02-26T13:50:06.931Z,1.00
2023-02-26T13:52:36.714Z,0.98
2023-02-26T13:55:06.286Z,0.50
2023-02-26T13:57:42.747Z,1.02
2023-02-26T14:00:13.523Z,0.40
2023-02-26T14:02:48.955Z,1.23
2023-02-26T14:05:51.633Z,1.38
2023-02-26T14:08:44.857Z,0.50
2023-02-26T14:11:42.807Z,0.40
2023-02-26T14:14:13.387Z,0.70
2023-02-26T14:16:44.895Z,0.57
2023-02-26T14:19:12.713Z,0.70
2023-02-26T14:21:57.792Z,1.30
2023-02-26T14:24:37.364Z,0.63
2023-02-26T14:27:33.150Z,0.95
2023-02-26T14:30:11.383Z,0.35
2023-02-26T14:32:56.038Z,0.50
2023-02-26T14:35:28.182Z,0.98
2023-02-26T14:38:00.755Z,0.52
2023-02-26T14:40:33.319Z,1.58
2023-02-26T14:43:05.469Z,0.65
2023-02-26T14:45:38.266Z,1.67
2023-02-26T14:48:08.423Z,1.45
2023-02-26T14:51:13.558Z,0.43
2023-02-26T14:56:45.744Z,0.68
2023-02-26T14:59:35.356Z,0.75
2023-02-26T15:02:14.823Z,0.82
2023-02-26T15:05:13.325Z,0.77
2023-02-26T15:07:59.623Z,0.68
2023-02-26T15:10:45.786Z,0.47
2023-02-26T15:13:32.083Z,0.80
2023-02-26T15:16:47.280Z,1.15
2023-02-26T15:19:41.345Z,0.70
2023-02-26T15:22:42.955Z,1.33
2023-02-26T15:25:34.175Z,0.50
2023-02-26T15:28:04.700Z,1.58
2023-02-26T15:30:35.519Z,1.00
2023-02-26T15:33:12.397Z,2.80
2023-02-26T15:35:40.685Z,1.08
2023-02-26T15:38:09.714Z,0.60
2023-02-26T15:40:38.200Z,0.82
2023-02-26T15:43:10.180Z,0.47
2023-02-26T15:45:42.053Z,0.80
2023-02-26T15:48:32.800Z,2.45
2023-02-26T15:51:03.328Z,3.80
2023-02-26T15:53:41.254Z,2.60
2023-02-26T15:56:26.617Z,1.10
2023-02-26T15:59:06.527Z,1.75
2023-02-26T16:01:35.250Z,5.72
2023-02-26T16:04:07.464Z,4.20
2023-02-26T16:06:39.848Z,2.90
2023-02-26T16:09:16.187Z,1.08
2023-02-26T16:11:45.230Z,0.80
2023-02-26T16:14:19.317Z,1.00
2023-02-26T16:19:31.835Z,1.00
2023-02-26T16:22:05.042Z,1.00
2023-02-26T16:24:34.061Z,0.97
2023-02-26T16:27:07.213Z,0.55
2023-02-26T16:29:37.812Z,1.50
2023-02-26T16:32:11.835Z,2.08
2023-02-26T16:37:19.326Z,2.15
2023-02-26T16:39:47.673Z,1.98
2023-02-26T16:42:21.124Z,1.73
2023-02-26T16:45:09.505Z,2.40
2023-02-26T16:47:40.445Z,1.55
2023-02-26T16:50:21.450Z,2.33
2023-02-26T16:53:00.513Z,1.85
2023-02-26T16:55:32.224Z,2.33
2023-02-26T16:58:04.569Z,2.25
2023-02-26T17:00:34.486Z,2.88
2023-02-26T17:03:24.411Z,3.17
2023-02-26T17:06:02.321Z,2.00
2023-02-26T17:08:36.647Z,3.33
2023-02-26T17:11:07.806Z,1.73
2023-02-26T17:13:38.426Z,2.17
2023-02-26T17:16:11.567Z,2.28
2023-02-26T17:18:39.780Z,2.20
2023-02-26T17:21:09.677Z,4.55
2023-02-26T17:23:38.863Z,3.20
2023-02-26T17:26:06.806Z,2.70
2023-02-26T17:28:40.695Z,3.10
2023-02-26T17:31:09.625Z,1.75
2023-02-26T17:33:40.884Z,4.20
2023-02-26T17:36:15.278Z,2.20
2023-02-26T17:38:47.185Z,2.42
2023-02-26T17:41:17.526Z,2.70
2023-02-26T17:43:45.633Z,3.15
2023-02-26T17:46:15.650Z,3.13
2023-02-26T17:48:43.589Z,3.88
2023-02-26T17:51:14.587Z,2.67
2023-02-26T17:53:46.520Z,4.60
2023-02-26T17:56:25.911Z,3.10
2023-02-26T17:58:56.060Z,4.38
2023-02-26T18:01:25.095Z,2.33
2023-02-26T18:03:54.754Z,2.70
2023-02-26T18:06:25.231Z,5.88
2023-02-26T18:08:54.358Z,3.90
2023-02-26T18:11:26.131Z,3.58
2023-02-26T18:13:55.528Z,2.28
2023-02-26T18:16:29.523Z,3.17
2023-02-26T18:18:59.585Z,4.15
2023-02-26T18:21:28.063Z,3.60
2023-02-26T18:23:57.653Z,2.80
2023-02-26T18:26:27.910Z,3.58
2023-02-26T18:28:56.070Z,2.53
2023-02-26T18:31:27.967Z,2.80
2023-02-26T18:33:56.014Z,1.92
2023-02-26T18:36:30.017Z,2.42
2023-02-26T18:38:59.714Z,2.70
2023-02-26T18:41:28.035Z,2.30
2023-02-26T18:43:56.450Z,1.88
2023-02-26T18:46:25.169Z,1.92
2023-02-26T18:48:54.011Z,1.65
2023-02-26T18:51:22.224Z,2.63
2023-02-26T18:53:50.113Z,1.25
2023-02-26T18:56:18.183Z,1.15
2023-02-26T18:58:46.078Z,2.95
2023-02-26T19:01:15.109Z,1.83
2023-02-26T19:03:42.997Z,2.33
2023-02-26T19:06:11.671Z,1.85
2023-02-26T19:08:39.962Z,1.58
2023-02-26T19:11:08.376Z,3.28
2023-02-26T19:13:36.384Z,2.25
2023-02-26T19:16:04.853Z,3.33
2023-02-26T19:18:33.144Z,2.50
2023-02-26T19:21:02.615Z,1.75
2023-02-26T19:23:31.216Z,2.65
2023-02-26T19:26:03.302Z,2.10
2023-02-26T19:28:33.690Z,2.15
2023-02-26T19:31:06.995Z,1.85
2023-02-26T19:33:35.442Z,2.10
2023-02-26T19:36:03.900Z,2.00
2023-02-26T19:38:32.589Z,1.65
2023-02-26T19:41:00.846Z,3.35
2023-02-26T19:43:30.507Z,2.22
2023-02-26T19:45:58.990Z,1.85
2023-02-26T19:48:27.909Z,3.42
2023-02-26T19:50:55.847Z,2.15
2023-02-26T19:53:24.281Z,2.67
2023-02-26T19:55:52.201Z,2.00
2023-02-26T19:58:21.130Z,2.30
2023-02-26T20:00:50.423Z,1.67
2023-02-26T20:03:18.333Z,3.75
2023-02-26T20:05:47.686Z,2.42
2023-02-26T20:08:15.603Z,1.70
2023-02-26T20:10:45.913Z,2.33
2023-02-26T20:13:15.957Z,5.18
2023-02-26T20:15:45.056Z,2.10
2023-02-26T20:18:12.991Z,2.10
2023-02-26T20:20:41.574Z,1.58
2023-02-26T20:23:10.276Z,1.50
2023-02-26T20:25:38.560Z,3.17
2023-02-26T20:28:06.572Z,2.13
2023-02-26T20:30:35.766Z,1.90
2023-02-26T20:33:04.797Z,1.92
2023-02-26T20:35:32.742Z,1.85
2023-02-26T20:38:00.615Z,1.98
2023-02-26T20:40:28.479Z,2.63
2023-02-26T20:42:57.574Z,2.20
2023-02-26T20:45:25.672Z,2.22
2023-02-26T20:47:53.483Z,3.00
2023-02-26T20:50:21.329Z,3.17
2023-02-26T20:52:49.361Z,3.67
2023-02-26T20:55:18.866Z,2.10
2023-02-26T20:57:48.518Z,3.63
2023-02-26T21:00:16.992Z,1.95
2023-02-26T21:02:46.172Z,1.40
2023-02-26T21:05:14.859Z,1.73
2023-02-26T21:07:43.138Z,1.88
2023-02-26T21:10:14.542Z,1.50
2023-02-26T21:12:42.822Z,1.42
2023-02-26T21:15:12.045Z,1.83
2023-02-26T21:17:43.095Z,2.45
2023-02-26T21:20:13.063Z,2.05
2023-02-26T21:22:41.033Z,3.33
2023-02-26T21:25:09.539Z,3.75
2023-02-26T21:27:38.207Z,2.58
2023-02-26T21:30:07.240Z,2.47
2023-02-26T21:32:35.256Z,1.83
2023-02-26T21:35:03.210Z,1.42
2023-02-26T21:37:31.125Z,1.60
2023-02-26T21:39:59.241Z,1.60
2023-02-26T21:42:27.452Z,2.17
2023-02-26T21:44:55.310Z,2.13
2023-02-26T21:47:23.169Z,2.13
2023-02-26T21:49:50.984Z,2.00
2023-02-26T21:52:18.866Z,2.08
2023-02-26T21:54:46.805Z,4.57
2023-02-26T21:57:14.697Z,1.08
2023-02-26T21:59:42.623Z,1.75
2023-02-26T22:02:12.415Z,1.75
2023-02-26T22:04:40.686Z,1.85
2023-02-26T22:07:08.808Z,2.30
2023-02-26T22:09:36.809Z,2.10
2023-02-26T22:12:05.025Z,2.63
2023-02-26T22:14:32.941Z,1.60
2023-02-26T22:17:00.828Z,2.30
2023-02-26T22:19:28.689Z,2.45
2023-02-26T22:21:56.553Z,2.05
2023-02-26T22:24:24.602Z,1.65
2023-02-26T22:26:52.536Z,2.53
2023-02-26T22:29:20.605Z,1.42
2023-02-26T22:31:48.669Z,1.27
2023-02-26T22:34:17.001Z,1.63
2023-02-26T22:36:44.817Z,1.65
2023-02-26T22:39:13.659Z,1.45
2023-02-26T22:41:41.690Z,3.72
2023-02-26T22:44:09.710Z,1.55
2023-02-26T22:46:37.663Z,1.27
2023-02-26T22:49:05.886Z,1.30
2023-02-26T22:51:34.072Z,2.63
2023-02-26T22:54:02.181Z,1.77
2023-02-26T22:56:30.234Z,2.42
2023-02-26T22:58:58.314Z,1.92
2023-02-26T23:01:26.359Z,1.70
2023-02-26T23:03:54.209Z,2.05
2023-02-26T23:06:22.073Z,1.63
2023-02-26T23:08:49.866Z,1.50
2023-02-26T23:11:17.737Z,2.22
2023-02-26T23:13:45.612Z,2.47
2023-02-26T23:16:13.914Z,1.33
2023-02-26T23:18:45.612Z,1.70
2023-02-26T23:21:13.778Z,1.17
2023-02-26T23:23:41.714Z,2.05
2023-02-26T23:26:10.450Z,1.02
2023-02-26T23:28:38.757Z,1.73
2023-02-26T23:31:07.037Z,1.63
2023-02-26T23:33:35.015Z,1.83
2023-02-26T23:36:03.053Z,1.58
2023-02-26T23:38:30.940Z,1.73
2023-02-26T23:40:58.760Z,2.50
2023-02-26T23:43:26.600Z,2.70
2023-02-26T23:45:54.552Z,2.33
2023-02-26T23:48:24.858Z,1.38
2023-02-26T23:50:52.944Z,1.27
2023-02-26T23:53:20.923Z,2.25
2023-02-26T23:55:51.322Z,3.63
2023-02-26T23:58:19.145Z,1.63
